sensor_id;sensor_type;location;lat;lon;timestamp;P1;durP1;ratioP1;P2;durP2;ratioP2
81703;SDS011;71117;52.352;4.808;2023-07-16T00:01:51;8.73;;;2.53;;
81703;SDS011;71117;52.352;4.808;2023-07-16T00:04:16;8.88;;;2.90;;
81703;SDS011;71117;52.352;4.808;2023-07-16T00:06:41;8.45;;;2.72;;
81703;SDS011;71117;52.352;4.808;2023-07-16T00:09:07;7.50;;;2.22;;
81703;SDS011;71117;52.352;4.808;2023-07-16T00:11:32;6.03;;;2.33;;
81703;SDS011;71117;52.352;4.808;2023-07-16T00:13:57;10.20;;;2.55;;
81703;SDS011;71117;52.352;4.808;2023-07-16T00:16:23;6.03;;;2.08;;
81703;SDS011;71117;52.352;4.808;2023-07-16T00:18:48;8.55;;;1.92;;
81703;SDS011;71117;52.352;4.808;2023-07-16T00:21:13;8.82;;;1.90;;
81703;SDS011;71117;52.352;4.808;2023-07-16T00:23:39;8.15;;;2.78;;
81703;SDS011;71117;52.352;4.808;2023-07-16T00:26:04;8.40;;;2.10;;
81703;SDS011;71117;52.352;4.808;2023-07-16T00:28:29;5.22;;;1.55;;
81703;SDS011;71117;52.352;4.808;2023-07-16T00:30:55;10.00;;;2.60;;
81703;SDS011;71117;52.352;4.808;2023-07-16T00:33:20;8.38;;;2.15;;
81703;SDS011;71117;52.352;4.808;2023-07-16T00:35:46;7.80;;;2.00;;
81703;SDS011;71117;52.352;4.808;2023-07-16T00:38:13;7.40;;;2.60;;
81703;SDS011;71117;52.352;4.808;2023-07-16T00:40:38;11.23;;;2.45;;
81703;SDS011;71117;52.352;4.808;2023-07-16T00:43:04;6.78;;;2.10;;
81703;SDS011;71117;52.352;4.808;2023-07-16T00:45:29;7.60;;;2.30;;
81703;SDS011;71117;52.352;4.808;2023-07-16T00:47:55;9.82;;;2.45;;
81703;SDS011;71117;52.352;4.808;2023-07-16T00:50:20;9.75;;;2.42;;
81703;SDS011;71117;52.352;4.808;2023-07-16T00:52:46;10.75;;;3.58;;
81703;SDS011;71117;52.352;4.808;2023-07-16T00:55:12;6.15;;;2.42;;
81703;SDS011;71117;52.352;4.808;2023-07-16T00:57:38;11.05;;;3.38;;
81703;SDS011;71117;52.352;4.808;2023-07-16T01:00:04;8.77;;;3.03;;
81703;SDS011;71117;52.352;4.808;2023-07-16T01:02:30;13.10;;;3.25;;
81703;SDS011;71117;52.352;4.808;2023-07-16T01:04:56;8.00;;;2.90;;
81703;SDS011;71117;52.352;4.808;2023-07-16T01:07:21;10.57;;;3.13;;
81703;SDS011;71117;52.352;4.808;2023-07-16T01:09:50;8.25;;;2.95;;
81703;SDS011;71117;52.352;4.808;2023-07-16T01:12:16;9.88;;;3.35;;
81703;SDS011;71117;52.352;4.808;2023-07-16T01:14:45;8.00;;;3.13;;
81703;SDS011;71117;52.352;4.808;2023-07-16T01:17:10;10.68;;;3.75;;
81703;SDS011;71117;52.352;4.808;2023-07-16T01:19:35;9.27;;;3.10;;
81703;SDS011;71117;52.352;4.808;2023-07-16T01:22:16;12.85;;;4.03;;
81703;SDS011;71117;52.352;4.808;2023-07-16T01:30:28;10.45;;;3.85;;
81703;SDS011;71117;52.352;4.808;2023-07-16T01:32:55;12.05;;;4.43;;
81703;SDS011;71117;52.352;4.808;2023-07-16T01:35:22;10.25;;;4.18;;
81703;SDS011;71117;52.352;4.808;2023-07-16T01:37:48;13.07;;;4.40;;
81703;SDS011;71117;52.352;4.808;2023-07-16T01:40:13;12.27;;;4.80;;
81703;SDS011;71117;52.352;4.808;2023-07-16T01:42:39;15.57;;;3.95;;
81703;SDS011;71117;52.352;4.808;2023-07-16T01:45:05;12.13;;;3.65;;
81703;SDS011;71117;52.352;4.808;2023-07-16T01:47:35;15.77;;;4.35;;
81703;SDS011;71117;52.352;4.808;2023-07-16T01:50:10;13.20;;;4.40;;
81703;SDS011;71117;52.352;4.808;2023-07-16T01:52:35;11.70;;;4.20;;
81703;SDS011;71117;52.352;4.808;2023-07-16T01:55:00;12.60;;;3.70;;
81703;SDS011;71117;52.352;4.808;2023-07-16T01:57:26;13.32;;;4.45;;
81703;SDS011;71117;52.352;4.808;2023-07-16T01:59:51;9.57;;;3.58;;
81703;SDS011;71117;52.352;4.808;2023-07-16T02:02:17;12.40;;;4.23;;
81703;SDS011;71117;52.352;4.808;2023-07-16T02:04:42;10.60;;;4.15;;
81703;SDS011;71117;52.352;4.808;2023-07-16T02:07:07;10.38;;;3.53;;
81703;SDS011;71117;52.352;4.808;2023-07-16T02:09:34;14.90;;;4.45;;
81703;SDS011;71117;52.352;4.808;2023-07-16T02:12:00;10.18;;;4.13;;
81703;SDS011;71117;52.352;4.808;2023-07-16T02:14:25;9.52;;;3.72;;
81703;SDS011;71117;52.352;4.808;2023-07-16T02:16:51;11.15;;;4.45;;
81703;SDS011;71117;52.352;4.808;2023-07-16T02:19:16;13.73;;;4.35;;
81703;SDS011;71117;52.352;4.808;2023-07-16T02:21:41;15.27;;;4.90;;
81703;SDS011;71117;52.352;4.808;2023-07-16T02:24:07;14.02;;;4.68;;
81703;SDS011;71117;52.352;4.808;2023-07-16T02:26:32;11.68;;;4.20;;
81703;SDS011;71117;52.352;4.808;2023-07-16T02:28:57;11.73;;;4.63;;
81703;SDS011;71117;52.352;4.808;2023-07-16T02:31:24;15.45;;;4.90;;
81703;SDS011;71117;52.352;4.808;2023-07-16T02:33:49;14.98;;;4.88;;
81703;SDS011;71117;52.352;4.808;2023-07-16T02:36:14;10.82;;;4.55;;
81703;SDS011;71117;52.352;4.808;2023-07-16T02:38:40;14.20;;;4.70;;
81703;SDS011;71117;52.352;4.808;2023-07-16T02:41:05;14.00;;;4.30;;
81703;SDS011;71117;52.352;4.808;2023-07-16T02:43:30;10.57;;;4.93;;
81703;SDS011;71117;52.352;4.808;2023-07-16T02:45:56;8.30;;;4.75;;
81703;SDS011;71117;52.352;4.808;2023-07-16T02:48:21;13.07;;;4.55;;
81703;SDS011;71117;52.352;4.808;2023-07-16T02:50:46;12.75;;;4.70;;
81703;SDS011;71117;52.352;4.808;2023-07-16T02:53:12;13.00;;;4.75;;
81703;SDS011;71117;52.352;4.808;2023-07-16T02:55:37;10.90;;;4.68;;
81703;SDS011;71117;52.352;4.808;2023-07-16T02:58:03;11.70;;;5.07;;
81703;SDS011;71117;52.352;4.808;2023-07-16T03:00:29;11.63;;;4.90;;
81703;SDS011;71117;52.352;4.808;2023-07-16T03:02:56;16.23;;;4.85;;
81703;SDS011;71117;52.352;4.808;2023-07-16T03:05:23;12.60;;;5.20;;
81703;SDS011;71117;52.352;4.808;2023-07-16T03:07:48;20.85;;;5.28;;
81703;SDS011;71117;52.352;4.808;2023-07-16T03:10:14;10.27;;;4.53;;
81703;SDS011;71117;52.352;4.808;2023-07-16T03:12:39;12.38;;;4.97;;
81703;SDS011;71117;52.352;4.808;2023-07-16T03:15:04;10.27;;;4.65;;
81703;SDS011;71117;52.352;4.808;2023-07-16T03:17:30;11.82;;;5.13;;
81703;SDS011;71117;52.352;4.808;2023-07-16T03:19:55;13.85;;;4.82;;
81703;SDS011;71117;52.352;4.808;2023-07-16T03:22:21;10.55;;;4.65;;
81703;SDS011;71117;52.352;4.808;2023-07-16T03:24:46;15.98;;;5.53;;
81703;SDS011;71117;52.352;4.808;2023-07-16T03:27:11;16.98;;;5.32;;
81703;SDS011;71117;52.352;4.808;2023-07-16T03:29:37;21.75;;;5.85;;
81703;SDS011;71117;52.352;4.808;2023-07-16T03:32:02;14.77;;;5.38;;
81703;SDS011;71117;52.352;4.808;2023-07-16T03:34:28;10.82;;;4.50;;
81703;SDS011;71117;52.352;4.808;2023-07-16T03:36:53;15.13;;;5.47;;
81703;SDS011;71117;52.352;4.808;2023-07-16T03:39:18;12.73;;;4.70;;
81703;SDS011;71117;52.352;4.808;2023-07-16T03:41:44;16.00;;;5.22;;
81703;SDS011;71117;52.352;4.808;2023-07-16T03:44:09;11.45;;;5.22;;
81703;SDS011;71117;52.352;4.808;2023-07-16T03:46:35;12.88;;;4.57;;
81703;SDS011;71117;52.352;4.808;2023-07-16T03:49:00;12.85;;;4.72;;
81703;SDS011;71117;52.352;4.808;2023-07-16T03:51:26;8.73;;;4.43;;
81703;SDS011;71117;52.352;4.808;2023-07-16T03:53:51;13.25;;;4.70;;
81703;SDS011;71117;52.352;4.808;2023-07-16T03:56:16;10.13;;;4.43;;
81703;SDS011;71117;52.352;4.808;2023-07-16T03:58:42;12.40;;;4.22;;
81703;SDS011;71117;52.352;4.808;2023-07-16T04:01:07;11.98;;;4.07;;
81703;SDS011;71117;52.352;4.808;2023-07-16T04:03:32;7.60;;;3.78;;
81703;SDS011;71117;52.352;4.808;2023-07-16T04:06:03;10.63;;;4.05;;
81703;SDS011;71117;52.352;4.808;2023-07-16T04:08:30;6.35;;;3.08;;
81703;SDS011;71117;52.352;4.808;2023-07-16T04:10:56;9.95;;;3.40;;
81703;SDS011;71117;52.352;4.808;2023-07-16T04:13:22;9.40;;;3.55;;
81703;SDS011;71117;52.352;4.808;2023-07-16T04:15:47;8.82;;;3.63;;
81703;SDS011;71117;52.352;4.808;2023-07-16T04:18:13;12.65;;;3.67;;
81703;SDS011;71117;52.352;4.808;2023-07-16T04:20:38;7.93;;;3.80;;
81703;SDS011;71117;52.352;4.808;2023-07-16T04:23:03;10.63;;;3.85;;
81703;SDS011;71117;52.352;4.808;2023-07-16T04:25:29;12.10;;;4.18;;
81703;SDS011;71117;52.352;4.808;2023-07-16T04:27:55;10.93;;;3.72;;
81703;SDS011;71117;52.352;4.808;2023-07-16T04:30:20;11.07;;;4.00;;
81703;SDS011;71117;52.352;4.808;2023-07-16T04:32:46;14.38;;;4.38;;
81703;SDS011;71117;52.352;4.808;2023-07-16T04:35:11;11.63;;;3.78;;
81703;SDS011;71117;52.352;4.808;2023-07-16T04:37:36;12.13;;;4.00;;
81703;SDS011;71117;52.352;4.808;2023-07-16T04:40:02;9.02;;;3.70;;
81703;SDS011;71117;52.352;4.808;2023-07-16T04:42:29;10.05;;;4.85;;
81703;SDS011;71117;52.352;4.808;2023-07-16T04:44:55;15.88;;;5.00;;
81703;SDS011;71117;52.352;4.808;2023-07-16T04:47:20;13.80;;;4.63;;
81703;SDS011;71117;52.352;4.808;2023-07-16T04:49:45;15.70;;;4.30;;
81703;SDS011;71117;52.352;4.808;2023-07-16T04:52:11;14.60;;;5.10;;
81703;SDS011;71117;52.352;4.808;2023-07-16T04:54:36;11.05;;;4.63;;
81703;SDS011;71117;52.352;4.808;2023-07-16T04:57:03;10.07;;;3.85;;
81703;SDS011;71117;52.352;4.808;2023-07-16T04:59:29;11.00;;;4.18;;
81703;SDS011;71117;52.352;4.808;2023-07-16T05:01:54;12.90;;;4.82;;
81703;SDS011;71117;52.352;4.808;2023-07-16T05:04:20;9.15;;;4.00;;
81703;SDS011;71117;52.352;4.808;2023-07-16T05:06:45;14.75;;;4.70;;
81703;SDS011;71117;52.352;4.808;2023-07-16T05:09:10;12.07;;;4.88;;
81703;SDS011;71117;52.352;4.808;2023-07-16T05:11:36;11.18;;;5.28;;
81703;SDS011;71117;52.352;4.808;2023-07-16T05:14:03;9.10;;;4.28;;
81703;SDS011;71117;52.352;4.808;2023-07-16T05:16:29;14.77;;;5.05;;
81703;SDS011;71117;52.352;4.808;2023-07-16T05:18:54;13.25;;;5.20;;
81703;SDS011;71117;52.352;4.808;2023-07-16T05:21:19;9.25;;;4.70;;
81703;SDS011;71117;52.352;4.808;2023-07-16T05:23:45;12.32;;;5.65;;
81703;SDS011;71117;52.352;4.808;2023-07-16T05:26:10;12.98;;;5.15;;
81703;SDS011;71117;52.352;4.808;2023-07-16T05:28:36;12.63;;;4.70;;
81703;SDS011;71117;52.352;4.808;2023-07-16T05:31:01;10.52;;;4.55;;
81703;SDS011;71117;52.352;4.808;2023-07-16T05:33:28;8.77;;;4.25;;
81703;SDS011;71117;52.352;4.808;2023-07-16T05:35:53;11.90;;;5.22;;
81703;SDS011;71117;52.352;4.808;2023-07-16T05:38:19;10.43;;;4.10;;
81703;SDS011;71117;52.352;4.808;2023-07-16T05:40:44;10.85;;;4.53;;
81703;SDS011;71117;52.352;4.808;2023-07-16T05:43:10;11.93;;;4.07;;
81703;SDS011;71117;52.352;4.808;2023-07-16T05:45:36;8.30;;;4.13;;
81703;SDS011;71117;52.352;4.808;2023-07-16T05:48:02;9.30;;;3.92;;
81703;SDS011;71117;52.352;4.808;2023-07-16T05:50:28;10.75;;;4.43;;
81703;SDS011;71117;52.352;4.808;2023-07-16T05:52:54;10.48;;;4.50;;
81703;SDS011;71117;52.352;4.808;2023-07-16T05:55:19;12.20;;;4.47;;
81703;SDS011;71117;52.352;4.808;2023-07-16T05:57:44;9.73;;;3.85;;
81703;SDS011;71117;52.352;4.808;2023-07-16T06:00:10;8.82;;;3.95;;
81703;SDS011;71117;52.352;4.808;2023-07-16T06:02:36;9.40;;;3.97;;
81703;SDS011;71117;52.352;4.808;2023-07-16T06:05:01;13.90;;;4.15;;
81703;SDS011;71117;52.352;4.808;2023-07-16T06:07:27;11.35;;;3.72;;
81703;SDS011;71117;52.352;4.808;2023-07-16T06:09:52;9.98;;;4.07;;
81703;SDS011;71117;52.352;4.808;2023-07-16T06:12:17;8.00;;;3.88;;
81703;SDS011;71117;52.352;4.808;2023-07-16T06:14:43;13.10;;;3.85;;
81703;SDS011;71117;52.352;4.808;2023-07-16T06:17:08;10.75;;;4.57;;
81703;SDS011;71117;52.352;4.808;2023-07-16T06:19:33;11.05;;;4.00;;
81703;SDS011;71117;52.352;4.808;2023-07-16T06:21:59;11.70;;;4.60;;
81703;SDS011;71117;52.352;4.808;2023-07-16T06:24:24;8.73;;;4.28;;
81703;SDS011;71117;52.352;4.808;2023-07-16T06:26:49;9.13;;;4.05;;
81703;SDS011;71117;52.352;4.808;2023-07-16T06:29:15;9.10;;;4.43;;
81703;SDS011;71117;52.352;4.808;2023-07-16T06:31:42;11.70;;;4.07;;
81703;SDS011;71117;52.352;4.808;2023-07-16T06:34:08;12.25;;;4.00;;
81703;SDS011;71117;52.352;4.808;2023-07-16T06:36:33;11.68;;;4.25;;
81703;SDS011;71117;52.352;4.808;2023-07-16T06:38:59;10.27;;;4.00;;
81703;SDS011;71117;52.352;4.808;2023-07-16T06:41:25;10.80;;;3.90;;
81703;SDS011;71117;52.352;4.808;2023-07-16T06:43:50;12.20;;;4.47;;
81703;SDS011;71117;52.352;4.808;2023-07-16T06:46:16;13.27;;;4.18;;
81703;SDS011;71117;52.352;4.808;2023-07-16T06:48:41;13.82;;;5.07;;
81703;SDS011;71117;52.352;4.808;2023-07-16T06:51:06;10.68;;;4.00;;
81703;SDS011;71117;52.352;4.808;2023-07-16T06:53:32;8.20;;;4.10;;
81703;SDS011;71117;52.352;4.808;2023-07-16T06:55:58;9.82;;;4.05;;
81703;SDS011;71117;52.352;4.808;2023-07-16T06:58:30;9.85;;;4.47;;
81703;SDS011;71117;52.352;4.808;2023-07-16T07:00:57;8.15;;;4.30;;
81703;SDS011;71117;52.352;4.808;2023-07-16T07:03:23;13.73;;;5.15;;
81703;SDS011;71117;52.352;4.808;2023-07-16T07:05:48;8.73;;;4.43;;
81703;SDS011;71117;52.352;4.808;2023-07-16T07:08:13;9.73;;;4.30;;
81703;SDS011;71117;52.352;4.808;2023-07-16T07:10:39;8.18;;;3.70;;
81703;SDS011;71117;52.352;4.808;2023-07-16T07:13:04;7.78;;;3.85;;
81703;SDS011;71117;52.352;4.808;2023-07-16T07:15:30;8.30;;;4.10;;
81703;SDS011;71117;52.352;4.808;2023-07-16T07:17:55;11.80;;;4.53;;
81703;SDS011;71117;52.352;4.808;2023-07-16T07:20:20;7.30;;;3.30;;
81703;SDS011;71117;52.352;4.808;2023-07-16T07:22:46;13.70;;;4.60;;
81703;SDS011;71117;52.352;4.808;2023-07-16T07:25:11;7.55;;;3.95;;
81703;SDS011;71117;52.352;4.808;2023-07-16T07:27:36;9.50;;;3.83;;
81703;SDS011;71117;52.352;4.808;2023-07-16T07:30:02;10.82;;;4.47;;
81703;SDS011;71117;52.352;4.808;2023-07-16T07:32:28;9.10;;;4.38;;
81703;SDS011;71117;52.352;4.808;2023-07-16T07:34:54;9.27;;;4.57;;
81703;SDS011;71117;52.352;4.808;2023-07-16T07:37:19;12.40;;;4.70;;
81703;SDS011;71117;52.352;4.808;2023-07-16T07:39:45;10.50;;;4.07;;
81703;SDS011;71117;52.352;4.808;2023-07-16T07:42:14;11.88;;;4.78;;
81703;SDS011;71117;52.352;4.808;2023-07-16T07:44:40;10.20;;;4.53;;
81703;SDS011;71117;52.352;4.808;2023-07-16T07:47:05;9.65;;;4.45;;
81703;SDS011;71117;52.352;4.808;2023-07-16T07:49:32;10.68;;;4.88;;
81703;SDS011;71117;52.352;4.808;2023-07-16T07:51:58;8.63;;;3.85;;
81703;SDS011;71117;52.352;4.808;2023-07-16T07:54:23;9.13;;;4.32;;
81703;SDS011;71117;52.352;4.808;2023-07-16T07:56:48;10.93;;;4.35;;
81703;SDS011;71117;52.352;4.808;2023-07-16T07:59:14;9.63;;;4.32;;
81703;SDS011;71117;52.352;4.808;2023-07-16T08:01:40;9.32;;;4.63;;
81703;SDS011;71117;52.352;4.808;2023-07-16T08:04:05;9.25;;;4.35;;
81703;SDS011;71117;52.352;4.808;2023-07-16T08:06:31;18.80;;;4.43;;
81703;SDS011;71117;52.352;4.808;2023-07-16T08:08:57;10.43;;;4.55;;
81703;SDS011;71117;52.352;4.808;2023-07-16T08:11:22;13.68;;;4.65;;
81703;SDS011;71117;52.352;4.808;2023-07-16T08:13:48;7.32;;;4.15;;
81703;SDS011;71117;52.352;4.808;2023-07-16T08:16:14;8.65;;;3.95;;
81703;SDS011;71117;52.352;4.808;2023-07-16T08:18:40;11.00;;;4.57;;
81703;SDS011;71117;52.352;4.808;2023-07-16T08:21:05;11.23;;;4.15;;
81703;SDS011;71117;52.352;4.808;2023-07-16T08:23:30;10.80;;;4.28;;
81703;SDS011;71117;52.352;4.808;2023-07-16T08:25:56;11.27;;;4.00;;
81703;SDS011;71117;52.352;4.808;2023-07-16T08:28:22;7.63;;;3.33;;
81703;SDS011;71117;52.352;4.808;2023-07-16T08:30:47;10.43;;;4.05;;
81703;SDS011;71117;52.352;4.808;2023-07-16T08:33:13;8.98;;;4.28;;
81703;SDS011;71117;52.352;4.808;2023-07-16T08:35:39;9.93;;;4.55;;
81703;SDS011;71117;52.352;4.808;2023-07-16T08:38:05;11.00;;;4.13;;
81703;SDS011;71117;52.352;4.808;2023-07-16T08:40:34;11.05;;;4.07;;
81703;SDS011;71117;52.352;4.808;2023-07-16T08:43:00;10.57;;;4.20;;
81703;SDS011;71117;52.352;4.808;2023-07-16T08:45:28;8.80;;;3.88;;
81703;SDS011;71117;52.352;4.808;2023-07-16T08:47:55;7.75;;;3.58;;
81703;SDS011;71117;52.352;4.808;2023-07-16T08:50:21;8.50;;;2.58;;
81703;SDS011;71117;52.352;4.808;2023-07-16T08:52:49;5.63;;;2.63;;
81703;SDS011;71117;52.352;4.808;2023-07-16T08:55:14;6.00;;;2.28;;
81703;SDS011;71117;52.352;4.808;2023-07-16T08:57:40;7.35;;;2.47;;
81703;SDS011;71117;52.352;4.808;2023-07-16T09:00:07;8.88;;;3.10;;
81703;SDS011;71117;52.352;4.808;2023-07-16T09:02:34;7.05;;;3.17;;
81703;SDS011;71117;52.352;4.808;2023-07-16T09:04:59;10.73;;;3.22;;
81703;SDS011;71117;52.352;4.808;2023-07-16T09:07:25;6.40;;;3.03;;
81703;SDS011;71117;52.352;4.808;2023-07-16T09:09:57;5.78;;;2.85;;
81703;SDS011;71117;52.352;4.808;2023-07-16T09:12:23;8.13;;;3.10;;
81703;SDS011;71117;52.352;4.808;2023-07-16T09:14:49;10.70;;;3.22;;
81703;SDS011;71117;52.352;4.808;2023-07-16T09:17:19;8.90;;;3.67;;
81703;SDS011;71117;52.352;4.808;2023-07-16T09:19:46;9.40;;;3.85;;
81703;SDS011;71117;52.352;4.808;2023-07-16T09:22:11;7.82;;;4.03;;
81703;SDS011;71117;52.352;4.808;2023-07-16T09:24:36;8.57;;;3.83;;
81703;SDS011;71117;52.352;4.808;2023-07-16T09:27:02;12.18;;;3.72;;
81703;SDS011;71117;52.352;4.808;2023-07-16T09:29:27;8.15;;;3.67;;
81703;SDS011;71117;52.352;4.808;2023-07-16T09:31:56;14.43;;;4.03;;
81703;SDS011;71117;52.352;4.808;2023-07-16T09:34:28;10.75;;;3.92;;
81703;SDS011;71117;52.352;4.808;2023-07-16T09:36:55;9.63;;;4.18;;
81703;SDS011;71117;52.352;4.808;2023-07-16T09:39:21;10.23;;;3.78;;
81703;SDS011;71117;52.352;4.808;2023-07-16T09:41:48;11.82;;;3.47;;
81703;SDS011;71117;52.352;4.808;2023-07-16T09:44:15;10.07;;;3.40;;
81703;SDS011;71117;52.352;4.808;2023-07-16T09:46:41;8.73;;;3.17;;
81703;SDS011;71117;52.352;4.808;2023-07-16T09:49:07;10.55;;;3.40;;
81703;SDS011;71117;52.352;4.808;2023-07-16T09:51:34;11.05;;;3.08;;
81703;SDS011;71117;52.352;4.808;2023-07-16T09:54:01;9.73;;;3.28;;
81703;SDS011;71117;52.352;4.808;2023-07-16T09:56:30;8.75;;;2.75;;
81703;SDS011;71117;52.352;4.808;2023-07-16T09:59:00;8.18;;;3.10;;
81703;SDS011;71117;52.352;4.808;2023-07-16T10:01:28;8.27;;;2.65;;
81703;SDS011;71117;52.352;4.808;2023-07-16T10:03:54;7.28;;;2.90;;
81703;SDS011;71117;52.352;4.808;2023-07-16T10:06:19;10.90;;;3.22;;
81703;SDS011;71117;52.352;4.808;2023-07-16T10:08:51;13.48;;;3.60;;
81703;SDS011;71117;52.352;4.808;2023-07-16T10:11:16;11.55;;;3.20;;
81703;SDS011;71117;52.352;4.808;2023-07-16T10:13:43;12.15;;;3.30;;
81703;SDS011;71117;52.352;4.808;2023-07-16T10:16:20;8.75;;;3.03;;
81703;SDS011;71117;52.352;4.808;2023-07-16T10:18:52;8.60;;;2.67;;
81703;SDS011;71117;52.352;4.808;2023-07-16T10:21:22;10.73;;;3.45;;
81703;SDS011;71117;52.352;4.808;2023-07-16T10:26:25;9.32;;;3.08;;
81703;SDS011;71117;52.352;4.808;2023-07-16T10:28:53;11.13;;;4.07;;
81703;SDS011;71117;52.352;4.808;2023-07-16T10:31:22;8.93;;;3.08;;
81703;SDS011;71117;52.352;4.808;2023-07-16T10:36:27;8.98;;;2.85;;
81703;SDS011;71117;52.352;4.808;2023-07-16T10:38:52;8.60;;;2.90;;
81703;SDS011;71117;52.352;4.808;2023-07-16T10:41:17;8.30;;;2.80;;
81703;SDS011;71117;52.352;4.808;2023-07-16T10:43:43;9.32;;;3.08;;
81703;SDS011;71117;52.352;4.808;2023-07-16T10:46:09;10.68;;;3.47;;
81703;SDS011;71117;52.352;4.808;2023-07-16T10:48:34;10.10;;;2.70;;
81703;SDS011;71117;52.352;4.808;2023-07-16T10:50:59;8.13;;;2.03;;
81703;SDS011;71117;52.352;4.808;2023-07-16T10:53:25;5.97;;;2.20;;
81703;SDS011;71117;52.352;4.808;2023-07-16T10:55:50;5.97;;;2.05;;
81703;SDS011;71117;52.352;4.808;2023-07-16T10:58:16;8.30;;;2.53;;
81703;SDS011;71117;52.352;4.808;2023-07-16T11:00:41;8.52;;;1.35;;
81703;SDS011;71117;52.352;4.808;2023-07-16T11:03:07;6.30;;;1.92;;
81703;SDS011;71117;52.352;4.808;2023-07-16T11:05:33;4.38;;;1.55;;
81703;SDS011;71117;52.352;4.808;2023-07-16T11:07:59;6.88;;;1.77;;
81703;SDS011;71117;52.352;4.808;2023-07-16T11:10:24;7.07;;;2.10;;
81703;SDS011;71117;52.352;4.808;2023-07-16T11:12:54;5.97;;;1.92;;
81703;SDS011;71117;52.352;4.808;2023-07-16T11:15:33;8.70;;;2.25;;
81703;SDS011;71117;52.352;4.808;2023-07-16T11:17:59;5.32;;;1.60;;
81703;SDS011;71117;52.352;4.808;2023-07-16T11:20:25;5.82;;;1.70;;
81703;SDS011;71117;52.352;4.808;2023-07-16T11:22:51;5.07;;;1.30;;
81703;SDS011;71117;52.352;4.808;2023-07-16T11:25:16;5.95;;;1.58;;
81703;SDS011;71117;52.352;4.808;2023-07-16T11:27:42;6.85;;;1.50;;
81703;SDS011;71117;52.352;4.808;2023-07-16T11:30:07;7.00;;;1.92;;
81703;SDS011;71117;52.352;4.808;2023-07-16T11:32:37;4.57;;;1.80;;
81703;SDS011;71117;52.352;4.808;2023-07-16T11:35:17;6.85;;;1.73;;
81703;SDS011;71117;52.352;4.808;2023-07-16T11:37:44;8.02;;;1.63;;
81703;SDS011;71117;52.352;4.808;2023-07-16T11:40:14;6.40;;;1.73;;
81703;SDS011;71117;52.352;4.808;2023-07-16T11:42:40;7.35;;;1.30;;
81703;SDS011;71117;52.352;4.808;2023-07-16T11:45:16;8.10;;;1.13;;
81703;SDS011;71117;52.352;4.808;2023-07-16T11:47:51;9.13;;;1.67;;
81703;SDS011;71117;52.352;4.808;2023-07-16T11:50:17;8.82;;;1.73;;
81703;SDS011;71117;52.352;4.808;2023-07-16T11:52:51;11.57;;;2.25;;
81703;SDS011;71117;52.352;4.808;2023-07-16T11:55:17;12.60;;;2.00;;
81703;SDS011;71117;52.352;4.808;2023-07-16T11:57:42;8.38;;;1.98;;
81703;SDS011;71117;52.352;4.808;2023-07-16T12:00:08;14.05;;;2.78;;
81703;SDS011;71117;52.352;4.808;2023-07-16T12:02:33;10.15;;;2.20;;
81703;SDS011;71117;52.352;4.808;2023-07-16T12:04:58;12.52;;;1.60;;
81703;SDS011;71117;52.352;4.808;2023-07-16T12:07:37;10.40;;;1.75;;
81703;SDS011;71117;52.352;4.808;2023-07-16T12:10:03;8.20;;;1.40;;
81703;SDS011;71117;52.352;4.808;2023-07-16T12:12:31;15.65;;;2.30;;
81703;SDS011;71117;52.352;4.808;2023-07-16T12:14:57;10.43;;;1.60;;
81703;SDS011;71117;52.352;4.808;2023-07-16T12:17:23;8.60;;;1.65;;
81703;SDS011;71117;52.352;4.808;2023-07-16T12:19:48;12.88;;;1.70;;
81703;SDS011;71117;52.352;4.808;2023-07-16T12:22:13;8.10;;;1.50;;
81703;SDS011;71117;52.352;4.808;2023-07-16T12:24:42;11.73;;;1.70;;
81703;SDS011;71117;52.352;4.808;2023-07-16T12:27:07;11.73;;;2.13;;
81703;SDS011;71117;52.352;4.808;2023-07-16T12:29:33;6.78;;;1.55;;
81703;SDS011;71117;52.352;4.808;2023-07-16T12:31:58;9.15;;;1.42;;
81703;SDS011;71117;52.352;4.808;2023-07-16T12:34:25;6.15;;;1.48;;
81703;SDS011;71117;52.352;4.808;2023-07-16T12:36:50;7.07;;;1.88;;
81703;SDS011;71117;52.352;4.808;2023-07-16T12:39:15;12.30;;;2.10;;
81703;SDS011;71117;52.352;4.808;2023-07-16T12:41:42;5.85;;;1.25;;
81703;SDS011;71117;52.352;4.808;2023-07-16T12:44:08;9.77;;;2.28;;
81703;SDS011;71117;52.352;4.808;2023-07-16T12:46:33;8.43;;;1.83;;
81703;SDS011;71117;52.352;4.808;2023-07-16T12:48:59;8.77;;;1.40;;
81703;SDS011;71117;52.352;4.808;2023-07-16T12:51:24;6.70;;;1.27;;
81703;SDS011;71117;52.352;4.808;2023-07-16T12:53:49;9.10;;;1.73;;
81703;SDS011;71117;52.352;4.808;2023-07-16T12:56:15;10.00;;;1.73;;
81703;SDS011;71117;52.352;4.808;2023-07-16T12:58:40;4.97;;;1.50;;
81703;SDS011;71117;52.352;4.808;2023-07-16T13:01:05;9.82;;;1.67;;
81703;SDS011;71117;52.352;4.808;2023-07-16T13:03:31;6.75;;;1.40;;
81703;SDS011;71117;52.352;4.808;2023-07-16T13:05:56;4.68;;;1.60;;
81703;SDS011;71117;52.352;4.808;2023-07-16T13:08:21;10.98;;;1.52;;
81703;SDS011;71117;52.352;4.808;2023-07-16T13:10:47;8.90;;;1.58;;
81703;SDS011;71117;52.352;4.808;2023-07-16T13:13:12;7.28;;;1.67;;
81703;SDS011;71117;52.352;4.808;2023-07-16T13:15:37;8.07;;;1.27;;
81703;SDS011;71117;52.352;4.808;2023-07-16T13:18:03;5.68;;;1.75;;
81703;SDS011;71117;52.352;4.808;2023-07-16T13:20:28;10.57;;;1.63;;
81703;SDS011;71117;52.352;4.808;2023-07-16T13:22:55;6.47;;;1.52;;
81703;SDS011;71117;52.352;4.808;2023-07-16T13:25:20;7.35;;;1.92;;
81703;SDS011;71117;52.352;4.808;2023-07-16T13:27:45;7.30;;;1.40;;
81703;SDS011;71117;52.352;4.808;2023-07-16T13:30:11;8.80;;;1.27;;
81703;SDS011;71117;52.352;4.808;2023-07-16T13:32:37;4.75;;;1.20;;
81703;SDS011;71117;52.352;4.808;2023-07-16T13:35:02;6.82;;;1.63;;
81703;SDS011;71117;52.352;4.808;2023-07-16T13:37:28;8.18;;;2.00;;
81703;SDS011;71117;52.352;4.808;2023-07-16T13:39:53;6.80;;;1.30;;
81703;SDS011;71117;52.352;4.808;2023-07-16T13:42:19;6.30;;;1.23;;
81703;SDS011;71117;52.352;4.808;2023-07-16T13:44:44;7.60;;;1.58;;
81703;SDS011;71117;52.352;4.808;2023-07-16T13:47:09;7.60;;;1.70;;
81703;SDS011;71117;52.352;4.808;2023-07-16T13:49:35;6.57;;;1.90;;
81703;SDS011;71117;52.352;4.808;2023-07-16T13:52:00;9.02;;;1.63;;
81703;SDS011;71117;52.352;4.808;2023-07-16T13:54:26;9.18;;;1.52;;
81703;SDS011;71117;52.352;4.808;2023-07-16T13:56:51;11.43;;;1.85;;
81703;SDS011;71117;52.352;4.808;2023-07-16T13:59:17;9.32;;;1.70;;
81703;SDS011;71117;52.352;4.808;2023-07-16T14:01:42;7.88;;;1.63;;
81703;SDS011;71117;52.352;4.808;2023-07-16T14:04:08;9.07;;;1.75;;
81703;SDS011;71117;52.352;4.808;2023-07-16T14:06:33;9.20;;;1.58;;
81703;SDS011;71117;52.352;4.808;2023-07-16T14:08:59;11.15;;;1.50;;
81703;SDS011;71117;52.352;4.808;2023-07-16T14:11:24;6.30;;;1.30;;
81703;SDS011;71117;52.352;4.808;2023-07-16T14:13:50;7.13;;;1.40;;
81703;SDS011;71117;52.352;4.808;2023-07-16T14:16:22;5.93;;;1.60;;
81703;SDS011;71117;52.352;4.808;2023-07-16T14:18:51;7.28;;;1.50;;
81703;SDS011;71117;52.352;4.808;2023-07-16T14:21:18;6.88;;;1.65;;
81703;SDS011;71117;52.352;4.808;2023-07-16T14:23:44;9.20;;;1.73;;
81703;SDS011;71117;52.352;4.808;2023-07-16T14:26:10;7.28;;;1.60;;
81703;SDS011;71117;52.352;4.808;2023-07-16T14:28:36;7.30;;;2.00;;
81703;SDS011;71117;52.352;4.808;2023-07-16T14:31:02;9.40;;;2.13;;
81703;SDS011;71117;52.352;4.808;2023-07-16T14:33:27;7.95;;;1.48;;
81703;SDS011;71117;52.352;4.808;2023-07-16T14:35:53;8.88;;;1.58;;
81703;SDS011;71117;52.352;4.808;2023-07-16T14:38:18;6.05;;;1.60;;
81703;SDS011;71117;52.352;4.808;2023-07-16T14:40:43;4.72;;;1.50;;
81703;SDS011;71117;52.352;4.808;2023-07-16T14:43:09;8.50;;;1.70;;
81703;SDS011;71117;52.352;4.808;2023-07-16T14:45:34;6.00;;;1.20;;